createdAt,value
2018-12-23T00:05:39.509Z,87.4
2018-12-23T00:06:16.256Z,87.78
2018-12-23T00:06:58.342Z,88.16
2018-12-23T00:07:38.878Z,87.21
2018-12-23T00:08:20.121Z,87.97
2018-12-23T00:09:00.468Z,87.87
2018-12-23T00:09:40.828Z,88.16
2018-12-23T00:10:21.478Z,88.26
2018-12-23T00:11:01.877Z,88.54
2018-12-23T00:11:42.250Z,88.45
2018-12-23T00:12:22.730Z,88.16
2018-12-23T00:13:03.124Z,88.45
2018-12-23T00:13:43.488Z,88.35
2018-12-23T00:14:23.869Z,88.26
2018-12-23T00:15:04.471Z,88.35
2018-12-23T00:15:44.733Z,87.78
2018-12-23T00:16:25.121Z,87.68
2018-12-23T00:17:06.600Z,88.26
2018-12-23T00:17:46.950Z,88.16
2018-12-23T00:18:27.362Z,88.35
2018-12-23T00:19:07.720Z,88.54
2018-12-23T00:19:48.165Z,87.97
2018-12-23T00:20:28.535Z,87.78
2018-12-23T00:21:08.930Z,87.87
2018-12-23T00:21:49.392Z,88.35
2018-12-23T00:22:30.111Z,87.87
2018-12-23T00:23:12.750Z,88.07
2018-12-23T00:23:53.170Z,87.87
2018-12-23T00:24:35.195Z,87.49
2018-12-23T00:25:17.588Z,87.59
2018-12-23T00:25:57.834Z,88.16
2018-12-23T00:26:39.919Z,88.16
2018-12-23T00:27:20.335Z,87.49
2018-12-23T00:28:01.625Z,88.07
2018-12-23T00:28:43.706Z,88.45
2018-12-23T00:29:27.737Z,89.54
2018-12-23T00:30:08.093Z,89.74
2018-12-23T00:30:49.095Z,89.45
2018-12-23T00:31:29.484Z,89.74
2018-12-23T00:32:11.142Z,90.69
2018-12-23T00:32:51.402Z,90.41
2018-12-23T00:33:31.561Z,90.69
2018-12-23T00:34:12.208Z,90.41
2018-12-23T00:34:52.560Z,90.59
2018-12-23T00:35:33.029Z,90.69
2018-12-23T00:36:13.457Z,90.41
2018-12-23T00:36:53.855Z,90.59
2018-12-23T00:37:34.463Z,90.79
2018-12-23T00:38:14.847Z,90.5
2018-12-23T00:38:55.465Z,90.12
2018-12-23T00:39:35.788Z,90.22
2018-12-23T00:40:16.310Z,90.41
2018-12-23T00:40:56.718Z,90.12
2018-12-23T00:41:38.916Z,90.69
2018-12-23T00:42:19.372Z,90.5
2018-12-23T00:42:59.767Z,90.98
2018-12-23T00:43:40.134Z,90.59
2018-12-23T00:44:22.205Z,90.93
2018-12-23T00:45:02.610Z,90.69
2018-12-23T00:45:43.051Z,90.31
2018-12-23T00:46:25.329Z,89.83
2018-12-23T00:47:07.756Z,90.03
2018-12-23T00:47:47.724Z,90.17
2018-12-23T00:48:28.047Z,89.83
2018-12-23T07:48:13.617Z,93.36
2018-12-23T07:48:56.872Z,92.88
2018-12-23T07:49:37.289Z,92.98
2018-12-23T07:50:17.637Z,92.88
2018-12-23T07:50:57.978Z,92.88
2018-12-23T07:51:38.660Z,92.98
2018-12-23T07:52:19.180Z,92.79
2018-12-23T07:52:59.527Z,92.6
2018-12-23T07:53:39.935Z,92.69
2018-12-23T07:54:20.338Z,92.69
2018-12-23T07:55:00.854Z,92.5
2018-12-23T07:55:41.827Z,91.55
2018-12-23T07:56:22.610Z,91.83
2018-12-23T07:57:02.625Z,91.74
2018-12-23T07:57:43.973Z,92.5
2018-12-23T07:58:26.232Z,92.03
2018-12-23T07:59:07.765Z,92.5
2018-12-23T07:59:48.535Z,92.5
2018-12-23T08:00:28.816Z,92.22
2018-12-23T08:01:09.238Z,92.5
2018-12-23T08:01:49.683Z,92.22
2018-12-23T08:02:31.362Z,92.5
2018-12-23T08:03:11.799Z,92.69
2018-12-23T08:03:52.249Z,92.32
2018-12-23T08:04:32.948Z,92.32
2018-12-23T08:05:13.857Z,92.41
2018-12-23T08:05:53.936Z,92.6
2018-12-23T08:06:34.400Z,92.5
2018-12-23T08:07:16.295Z,92.22
2018-12-23T08:07:56.551Z,91.64
2018-12-23T08:08:36.911Z,91.74
2018-12-23T08:09:17.343Z,91.64
2018-12-23T08:09:58.176Z,91.74
2018-12-23T08:10:38.591Z,91.83
2018-12-23T08:11:18.966Z,91.83
2018-12-23T08:11:59.395Z,91.27
2018-12-23T08:12:39.817Z,91.83
2018-12-23T08:13:21.787Z,91.36
2018-12-23T08:14:05.495Z,91.55
2018-12-23T08:14:45.853Z,90.69
2018-12-23T08:15:27.077Z,90.59
2018-12-23T08:16:07.493Z,90.79
2018-12-23T08:16:49.283Z,90.79
2018-12-23T08:17:29.606Z,91.36
2018-12-23T08:18:09.940Z,90.5
2018-12-23T08:18:51.199Z,91.12
2018-12-23T08:19:30.786Z,91.36
2018-12-23T08:20:11.193Z,90.98
2018-12-23T08:20:52.048Z,91.5
2018-12-23T08:21:32.432Z,91.27
2018-12-23T08:22:12.898Z,90.64
2018-12-23T08:22:53.473Z,90.79
2018-12-23T08:23:33.850Z,90.5
2018-12-23T08:24:14.248Z,90.5
2018-12-23T08:24:54.583Z,91.41
2018-12-23T08:25:35.653Z,91.02
2018-12-23T08:26:17.000Z,91.02
2018-12-23T08:26:57.475Z,90.73
2018-12-23T08:27:37.809Z,91.21
2018-12-23T08:28:18.275Z,90.64
2018-12-23T08:28:58.630Z,90.45
2018-12-23T08:29:39.136Z,91.02
2018-12-23T08:30:19.414Z,90.83
2018-12-23T08:30:59.897Z,90.73
2018-12-23T08:31:40.198Z,90.26
2018-12-23T08:32:20.628Z,89.88
2018-12-23T08:33:01.052Z,90.17
2018-12-23T08:33:41.618Z,89.5
2018-12-23T08:34:23.736Z,89.97
2018-12-23T08:35:04.202Z,89.5
2018-12-23T08:35:44.533Z,89.97
2018-12-23T08:36:24.911Z,89.88
2018-12-23T08:37:07.245Z,89.88
2018-12-23T08:37:47.604Z,89.78
2018-12-23T08:38:27.963Z,89.5
2018-12-23T08:39:08.420Z,89.31
2018-12-23T08:39:48.808Z,89.78
2018-12-23T08:40:29.304Z,89.21
2018-12-23T08:41:09.777Z,89.12
2018-12-23T08:41:50.054Z,88.73
2018-12-23T08:42:30.843Z,89.12
2018-12-23T08:43:11.058Z,88.64
2018-12-23T08:43:51.420Z,89.21
2018-12-23T08:44:31.899Z,88.83
2018-12-23T08:45:12.209Z,89.5
2018-12-23T08:45:52.586Z,88.92
2018-12-23T08:46:39.049Z,88.83
2018-12-23T08:47:13.499Z,88.54
2018-12-23T08:47:54.109Z,88.54
2018-12-23T08:48:34.336Z,88.26
2018-12-23T08:49:14.774Z,88.35
2018-12-23T08:49:55.360Z,88.26
2018-12-23T08:50:35.696Z,87.78
2018-12-23T08:51:18.660Z,87.78
2018-12-23T08:51:58.654Z,87.68
2018-12-23T08:52:38.860Z,87.49
2018-12-23T08:53:19.342Z,86.82
2018-12-23T08:53:59.703Z,87.02
2018-12-23T08:54:40.255Z,87.4
2018-12-23T08:55:20.512Z,87.59
2018-12-23T08:56:00.903Z,87.59
2018-12-23T08:56:41.761Z,87.21
2018-12-23T08:57:22.345Z,87.49
2018-12-23T08:58:05.056Z,87.78
2018-12-23T08:58:45.667Z,88.07
2018-12-23T08:59:25.820Z,87.87
2018-12-23T09:00:06.243Z,87.68
2018-12-23T09:00:47.048Z,87.11
2018-12-23T09:01:27.359Z,87.3
2018-12-23T09:02:07.858Z,86.92
2018-12-23T09:02:48.233Z,86.44
2018-12-23T09:03:28.599Z,86.63
2018-12-23T09:04:09.232Z,86.82
2018-12-23T09:04:51.523Z,85.97
2018-12-23T09:05:32.121Z,86.92
2018-12-23T09:06:13.018Z,86.54
2018-12-23T09:06:53.413Z,86.06
2018-12-23T09:07:33.810Z,86.35
2018-12-23T09:08:14.680Z,86.54
2018-12-23T09:08:57.828Z,86.73
2018-12-23T09:09:38.251Z,86.01
2018-12-23T09:10:18.678Z,86.63
2018-12-23T09:10:59.859Z,86.63
2018-12-23T09:11:42.875Z,86.39
2018-12-23T09:12:20.648Z,86.01
2018-12-23T09:13:01.107Z,85.77
2018-12-23T09:13:41.562Z,85.44
2018-12-23T09:14:21.929Z,85.68
2018-12-23T09:15:02.320Z,85.63
2018-12-23T09:15:42.709Z,86.49
2018-12-23T09:16:23.110Z,86.1
2018-12-23T09:17:03.447Z,86.2
2018-12-23T09:17:43.936Z,86.49
2018-12-23T09:18:24.872Z,86.3
2018-12-23T09:19:04.973Z,85.68
2018-12-23T09:19:45.338Z,85.82
2018-12-23T09:20:25.859Z,85.15
2018-12-23T09:21:06.208Z,85.53
2018-12-23T09:21:46.648Z,84.86
2018-12-23T09:22:27.313Z,85.44
2018-12-23T09:23:08.648Z,85.15
2018-12-23T09:23:48.874Z,84.96
2018-12-23T09:24:29.345Z,85.11
2018-12-23T09:25:09.717Z,84.82
2018-12-23T09:25:50.548Z,85.15
2018-12-23T09:26:31.104Z,85.25
2018-12-23T09:27:11.521Z,85.11
2018-12-23T09:27:52.015Z,85.34
2018-12-23T09:28:32.315Z,85.34
2018-12-23T09:29:12.814Z,85.05
2018-12-23T09:29:53.114Z,85.63
2018-12-23T09:30:33.727Z,85.72
2018-12-23T09:31:14.062Z,86.2
2018-12-23T09:31:54.483Z,86.2
2018-12-23T09:32:34.857Z,86.16
2018-12-23T09:33:15.274Z,86.3
2018-12-23T09:33:55.679Z,86.16
2018-12-23T09:34:36.190Z,86.06
2018-12-23T09:35:16.456Z,86.16
2018-12-23T09:35:56.906Z,86.25
2018-12-23T09:36:37.311Z,86.82
2018-12-23T09:37:17.669Z,87.11
2018-12-23T09:38:01.508Z,86.82
2018-12-23T09:38:38.446Z,87.3
2018-12-23T09:39:18.823Z,87.02
2018-12-23T09:39:59.336Z,87.49
2018-12-23T09:40:39.742Z,87.4
2018-12-23T09:41:20.172Z,87.97
2018-12-23T09:42:00.590Z,88.16
2018-12-23T09:42:41.051Z,87.78
2018-12-23T09:43:21.418Z,87.87
2018-12-23T09:44:01.944Z,88.26
2018-12-23T09:44:42.419Z,88.35
2018-12-23T09:45:22.932Z,88.26
2018-12-23T09:46:03.361Z,88.45
2018-12-23T09:46:43.684Z,88.45
2018-12-23T09:47:24.149Z,89.31
2018-12-23T09:48:04.577Z,89.78
2018-12-23T09:48:45.422Z,89.31
2018-12-23T09:49:25.339Z,89.45
2018-12-23T09:50:05.782Z,89.26
2018-12-23T09:50:46.171Z,89.45
2018-12-23T09:51:26.602Z,89.64
2018-12-23T09:52:07.188Z,89.83
2018-12-23T09:52:47.381Z,90.03
2018-12-23T09:53:27.804Z,90.12
2018-12-23T09:54:08.203Z,90.69
2018-12-23T09:54:48.573Z,90.5
2018-12-23T09:55:28.976Z,90.41
2018-12-23T09:56:09.387Z,90.69
2018-12-23T09:56:49.815Z,90.5
2018-12-23T09:57:30.131Z,90.59
2018-12-23T09:58:12.270Z,90.88
2018-12-23T09:58:52.673Z,90.69
2018-12-23T09:59:33.087Z,90.98
2018-12-23T10:00:13.521Z,90.79
2018-12-23T10:00:53.970Z,91.17
2018-12-23T10:01:34.446Z,90.59
2018-12-23T10:02:14.745Z,91.46
2018-12-23T10:02:55.123Z,91.55
2018-12-23T10:03:35.611Z,90.41
2018-12-23T10:04:15.917Z,91.17
2018-12-23T10:04:56.402Z,91.64
2018-12-23T10:05:36.810Z,91.36
2018-12-23T10:06:17.164Z,90.59
2018-12-23T10:06:57.561Z,90.88
2018-12-23T10:07:37.968Z,90.69
2018-12-23T10:08:18.363Z,90.88
2018-12-23T10:08:58.782Z,90.98
2018-12-23T11:21:38.095Z,99.99
2018-12-23T12:40:49.260Z,95.37
2018-12-23T12:41:29.583Z,94.79
2018-12-23T12:42:09.985Z,95.27
2018-12-23T12:42:50.389Z,95.08
2018-12-23T12:43:30.818Z,95.37
2018-12-23T12:44:11.220Z,95.37
2018-12-23T12:44:51.625Z,94.98
2018-12-23T12:45:32.015Z,96.22
2018-12-23T12:46:12.426Z,97.37
2018-12-23T12:46:52.815Z,97.66
2018-12-23T12:47:33.218Z,97.56
2018-12-23T12:48:13.632Z,97.37
2018-12-23T12:48:54.062Z,97.56
2018-12-23T12:49:34.488Z,97.61
2018-12-23T12:50:14.910Z,98.13
2018-12-23T12:50:55.312Z,98.75
2018-12-23T12:51:35.703Z,98.94
2018-12-23T12:52:16.119Z,98.94
2018-12-23T12:52:56.541Z,99.99
2018-12-23T12:53:36.961Z,99.99
2018-12-23T12:54:17.376Z,99.99
2018-12-23T12:54:57.797Z,99.99
2018-12-23T12:55:38.198Z,99.99
2018-12-23T12:56:18.611Z,99.99
2018-12-23T12:56:59.017Z,99.99
2018-12-23T12:57:39.434Z,99.99
2018-12-23T12:58:19.854Z,99.99
2018-12-23T12:59:00.265Z,99.99
2018-12-23T12:59:40.686Z,99.99
2018-12-23T13:00:21.101Z,99.99
2018-12-23T13:01:01.523Z,99.99
2018-12-23T13:01:41.942Z,99.99
2018-12-23T13:02:22.351Z,99.99
2018-12-23T13:03:02.780Z,99.99
2018-12-23T13:03:43.181Z,99.99
2018-12-23T13:04:23.587Z,99.99
2018-12-23T13:05:04.002Z,99.99
2018-12-23T13:05:44.409Z,99.99
2018-12-23T13:06:24.818Z,99.99
2018-12-23T13:07:05.267Z,99.99
2018-12-23T13:07:45.650Z,99.99
2018-12-23T13:08:26.061Z,99.99
2018-12-23T13:09:06.475Z,99.99
2018-12-23T13:09:46.859Z,99.99
2018-12-23T13:10:27.248Z,99.99
2018-12-23T13:11:07.651Z,99.99
2018-12-23T13:11:48.083Z,99.99
2018-12-23T13:12:28.507Z,99.99
2018-12-23T13:13:08.916Z,99.99
2018-12-23T13:13:49.343Z,99.99
2018-12-23T13:14:29.770Z,99.99
2018-12-23T13:15:10.197Z,99.99
2018-12-23T13:15:50.587Z,99.99
2018-12-23T13:16:31.009Z,99.99
2018-12-23T13:17:11.446Z,99.99
2018-12-23T13:17:51.788Z,99.99
2018-12-23T13:18:32.180Z,99.99
2018-12-23T13:19:12.552Z,99.99
2018-12-23T13:19:52.953Z,99.99
2018-12-23T13:20:33.310Z,99.99
2018-12-23T13:21:13.734Z,99.99
2018-12-23T13:21:54.092Z,99.99
2018-12-23T13:22:34.530Z,99.99
2018-12-23T13:23:14.920Z,99.99
2018-12-23T13:23:55.317Z,99.99
2018-12-23T13:24:35.759Z,99.99
2018-12-23T13:25:16.152Z,99.99
2018-12-23T13:25:56.522Z,99.99
2018-12-23T13:26:36.917Z,99.99
2018-12-23T13:27:17.295Z,99.99
2018-12-23T13:27:57.745Z,99.99
2018-12-23T13:28:38.096Z,99.99
2018-12-23T13:29:18.466Z,99.99
2018-12-23T19:26:18.576Z,99.99
2018-12-23T19:27:03.594Z,99.99
2018-12-23T19:27:44.021Z,99.99
2018-12-23T19:28:26.091Z,99.99
2018-12-23T19:29:06.519Z,99.99
2018-12-23T19:29:48.672Z,99.99
2018-12-23T19:30:30.025Z,99.99
2018-12-23T19:31:10.425Z,99.99
2018-12-23T19:31:50.819Z,99.99
2018-12-23T19:32:31.657Z,99.99
2018-12-23T19:33:11.652Z,99.99
2018-12-23T19:33:52.006Z,99.99
2018-12-23T19:34:33.914Z,99.99
2018-12-23T19:35:12.973Z,99.99
2018-12-23T19:35:54.128Z,99.99
2018-12-23T19:36:36.362Z,99.99
2018-12-23T19:37:16.777Z,99.99
2018-12-23T19:37:57.156Z,99.99
2018-12-23T19:38:39.325Z,99.99
2018-12-23T19:39:19.699Z,99.99
2018-12-23T19:40:00.255Z,99.99
2018-12-23T20:10:46.635Z,99.99
2018-12-23T20:11:26.773Z,99.99
2018-12-23T20:12:08.140Z,99.99
2018-12-23T20:12:48.611Z,99.99
2018-12-23T20:13:28.970Z,99.99
2018-12-23T20:14:09.346Z,99.99
2018-12-23T20:14:49.732Z,99.99
2018-12-23T20:15:30.287Z,99.99
2018-12-23T20:16:10.676Z,99.99
2018-12-23T20:16:51.116Z,99.99
2018-12-23T20:17:31.546Z,99.99
2018-12-23T20:18:11.906Z,99.99
2018-12-23T20:18:52.315Z,99.99
2018-12-23T20:19:33.229Z,99.99
2018-12-23T20:20:13.539Z,99.99
2018-12-23T20:20:53.938Z,99.99
2018-12-23T20:21:36.014Z,99.99
2018-12-23T20:22:16.251Z,99.99
2018-12-23T20:22:57.657Z,99.99
2018-12-23T20:23:38.049Z,99.99
2018-12-23T20:24:18.468Z,99.99
2018-12-23T20:24:58.849Z,99.99
2018-12-23T20:25:39.244Z,99.99
2018-12-23T20:26:19.668Z,99.99
2018-12-23T20:27:00.109Z,99.99
2018-12-23T20:27:40.512Z,99.99
2018-12-23T20:28:20.936Z,99.99
2018-12-23T20:29:01.338Z,99.99
2018-12-23T20:29:41.849Z,99.99
2018-12-23T20:30:22.198Z,99.99
2018-12-23T20:31:02.618Z,99.99
2018-12-23T20:31:43.034Z,99.99
2018-12-23T20:32:23.441Z,99.99
2018-12-23T20:33:03.852Z,99.99
2018-12-23T20:33:44.259Z,99.99
2018-12-23T20:34:24.689Z,99.99
2018-12-23T20:35:05.086Z,99.99
2018-12-23T20:35:47.382Z,99.99
2018-12-23T20:36:29.148Z,99.99
2018-12-23T20:37:09.477Z,99.99
2018-12-23T20:37:49.865Z,99.99
2018-12-23T20:38:30.238Z,99.99
2018-12-23T20:39:10.615Z,99.99
2018-12-23T20:39:51.962Z,99.99
2018-12-23T20:40:33.320Z,99.99
2018-12-23T20:41:14.236Z,99.99
2018-12-23T20:41:56.250Z,99.99
2018-12-23T20:42:38.250Z,99.99
2018-12-23T20:43:18.638Z,99.99
2018-12-23T20:43:59.071Z,99.99
2018-12-23T20:44:39.458Z,99.99
2018-12-23T20:45:19.882Z,99.99
2018-12-23T20:46:00.297Z,99.99
2018-12-23T20:46:40.693Z,99.99
2018-12-23T20:47:21.232Z,99.99
2018-12-23T20:48:01.564Z,99.99
2018-12-23T20:48:42.007Z,99.99
2018-12-23T20:49:22.354Z,99.99
2018-12-23T20:50:02.779Z,99.99
2018-12-23T20:50:43.798Z,99.99
2018-12-23T20:51:25.178Z,99.99
2018-12-23T20:52:05.595Z,99.99
2018-12-23T20:52:46.165Z,99.99
2018-12-23T20:53:27.379Z,99.99
2018-12-23T20:54:07.773Z,99.99
2018-12-23T20:54:49.865Z,99.99
2018-12-23T20:55:30.279Z,99.99
2018-12-23T20:56:10.651Z,99.99
2018-12-23T20:56:51.033Z,99.99
2018-12-23T20:57:31.498Z,99.99
2018-12-23T20:58:11.867Z,99.99
2018-12-23T20:58:52.222Z,99.99
2018-12-23T20:59:32.666Z,99.99
2018-12-23T21:00:13.066Z,99.99
2018-12-23T21:00:53.454Z,99.99
2018-12-23T21:01:34.175Z,99.99
2018-12-23T21:02:15.984Z,99.99
2018-12-23T21:02:56.379Z,99.99
2018-12-23T21:03:36.790Z,99.99
2018-12-23T21:04:17.189Z,99.99
2018-12-23T21:04:57.587Z,99.99
2018-12-23T21:05:37.964Z,99.99
2018-12-23T21:06:18.388Z,99.99
2018-12-23T21:06:59.704Z,99.99
2018-12-23T21:07:40.071Z,99.99
2018-12-23T21:08:21.277Z,99.99
2018-12-23T21:09:01.645Z,99.99
2018-12-23T21:09:42.047Z,99.99
2018-12-23T21:10:22.646Z,99.99
2018-12-23T21:11:04.777Z,99.99
2018-12-23T21:11:45.547Z,99.99
2018-12-23T21:12:25.934Z,99.99
2018-12-23T21:13:06.357Z,99.99
2018-12-23T21:13:47.582Z,99.99
2018-12-23T21:14:27.957Z,99.99
2018-12-23T21:15:08.314Z,99.99
2018-12-23T21:15:48.715Z,99.99
2018-12-23T21:16:30.295Z,99.99
2018-12-23T21:17:10.769Z,99.99
2018-12-23T21:17:52.958Z,99.99
2018-12-23T21:18:33.349Z,99.99
2018-12-23T21:19:13.756Z,99.99
2018-12-23T21:19:54.159Z,99.99
2018-12-23T21:20:34.658Z,99.99
2018-12-23T21:21:15.910Z,99.99
2018-12-23T21:21:56.357Z,99.99
2018-12-23T21:22:37.661Z,99.99
2018-12-23T21:23:18.152Z,99.99
2018-12-23T21:23:58.563Z,99.99
2018-12-23T21:24:40.792Z,99.99
2018-12-23T21:25:22.759Z,99.99
2018-12-23T21:26:03.212Z,99.99
2018-12-23T21:26:43.790Z,99.99
2018-12-23T21:27:25.872Z,99.99
2018-12-23T21:28:07.770Z,99.99
2018-12-23T21:28:48.158Z,99.99
2018-12-23T21:29:32.305Z,99.99
2018-12-23T21:30:12.689Z,99.99
2018-12-23T21:30:53.104Z,99.99
2018-12-23T21:31:33.425Z,99.99
2018-12-23T21:32:13.910Z,99.99
2018-12-23T21:32:54.307Z,99.99
2018-12-23T21:33:35.672Z,99.99
2018-12-23T21:34:16.103Z,99.99
2018-12-23T21:34:56.616Z,99.99
2018-12-23T21:35:36.997Z,99.99
2018-12-23T21:36:17.345Z,99.99
2018-12-23T21:36:57.904Z,99.99
2018-12-23T21:37:38.265Z,99.99
2018-12-23T21:38:20.288Z,99.99
2018-12-23T21:39:00.895Z,99.99
2018-12-23T21:39:41.353Z,99.99
2018-12-23T21:40:21.730Z,99.99
2018-12-23T21:41:02.223Z,99.99
2018-12-23T21:41:42.525Z,99.99
2018-12-23T21:42:22.922Z,99.99
2018-12-23T21:43:03.271Z,99.99
2018-12-23T21:43:44.384Z,99.99
2018-12-23T21:44:24.077Z,99.99
2018-12-23T21:45:05.622Z,99.99
2018-12-23T21:45:46.905Z,99.99
2018-12-23T21:46:27.292Z,99.99
2018-12-23T21:47:07.789Z,99.99
2018-12-23T21:47:48.255Z,99.99
2018-12-23T21:48:29.507Z,99.99
2018-12-23T21:49:09.878Z,99.99
2018-12-23T21:49:50.518Z,99.99
2018-12-23T21:50:30.892Z,99.99
2018-12-23T21:51:11.412Z,99.99
2018-12-23T21:51:52.012Z,99.99
2018-12-23T21:52:39.562Z,99.99
2018-12-23T21:53:12.696Z,99.99
2018-12-23T21:53:53.985Z,99.99
2018-12-23T21:54:35.526Z,99.99
2018-12-23T21:55:15.864Z,99.99
2018-12-23T21:55:56.306Z,99.99
2018-12-23T21:56:36.685Z,99.99
2018-12-23T21:57:17.082Z,99.99
2018-12-23T21:57:57.499Z,99.99
2018-12-23T21:58:37.961Z,99.99
2018-12-23T21:59:18.335Z,99.99
2018-12-23T21:59:58.722Z,99.99
2018-12-23T22:00:39.089Z,99.99
2018-12-23T22:01:19.495Z,99.99
2018-12-23T22:01:59.986Z,99.99
2018-12-23T22:02:40.245Z,99.99
2018-12-23T22:03:20.638Z,99.99
2018-12-23T22:04:01.014Z,99.99
2018-12-23T22:04:41.543Z,99.99
2018-12-23T22:05:21.985Z,99.99
2018-12-23T22:06:02.532Z,99.99
2018-12-23T22:06:44.797Z,99.99
2018-12-23T22:07:25.445Z,99.99
2018-12-23T22:08:05.645Z,99.99
2018-12-23T22:08:45.973Z,99.99
2018-12-23T22:09:28.273Z,99.99
2018-12-23T22:10:08.675Z,99.99
2018-12-23T22:10:50.906Z,99.99
2018-12-23T22:11:33.156Z,99.99
2018-12-23T22:12:11.677Z,99.99
2018-12-23T22:12:52.069Z,99.99
2018-12-23T22:13:32.491Z,99.99
2018-12-23T22:14:12.900Z,99.99
2018-12-23T22:14:53.269Z,99.99
2018-12-23T22:15:33.653Z,99.99
2018-12-23T22:16:14.074Z,99.99
2018-12-23T22:16:54.519Z,99.99
2018-12-23T22:17:34.859Z,99.99
2018-12-23T22:18:15.252Z,99.99
2018-12-23T22:18:55.654Z,99.99
2018-12-23T22:19:36.124Z,99.99
2018-12-23T22:20:16.743Z,99.99
2018-12-23T22:20:57.131Z,99.99
2018-12-23T22:21:37.504Z,99.99
2018-12-23T22:22:17.885Z,99.99
2018-12-23T22:22:58.451Z,99.99
2018-12-23T22:23:38.685Z,99.99
2018-12-23T22:24:19.135Z,99.99
2018-12-23T22:24:59.465Z,99.99
2018-12-23T22:25:39.894Z,99.99
2018-12-23T22:29:15.836Z,99.99
2018-12-23T23:41:26.850Z,99.99
2018-12-23T23:42:07.220Z,99.99
2018-12-23T23:42:47.628Z,99.99
2018-12-23T23:43:28.042Z,99.99
2018-12-23T23:44:08.461Z,99.99
2018-12-23T23:44:49.834Z,99.99
2018-12-23T23:45:30.272Z,99.99
2018-12-23T23:46:10.676Z,99.99
2018-12-23T23:46:51.127Z,99.99
2018-12-23T23:47:33.297Z,99.99
2018-12-23T23:48:18.408Z,99.99
2018-12-23T23:48:58.746Z,99.99
2018-12-23T23:49:39.133Z,99.99
2018-12-23T23:50:22.076Z,99.99
2018-12-23T23:51:06.372Z,99.99
2018-12-23T23:51:46.822Z,99.99
2018-12-23T23:52:27.205Z,99.99
2018-12-23T23:53:07.574Z,99.99
2018-12-23T23:53:48.083Z,99.99
2018-12-23T23:54:28.478Z,99.99
2018-12-23T23:55:08.897Z,99.99
2018-12-23T23:55:49.298Z,99.99
2018-12-23T23:56:29.734Z,99.99
2018-12-23T23:57:10.154Z,99.99
2018-12-23T23:57:50.577Z,99.99
2018-12-23T23:58:30.969Z,99.99
2018-12-23T23:59:12.315Z,99.99
2018-12-23T23:59:52.686Z,99.99
